Photo de Laille
Rennes
Ciel dégagé
Metar : 2018/12/17 13:00 LFRN 171300Z AUTO 18009KT CAVOK 11/09 Q1022 NOSIG
Couverture nuageuse :
Pression de 30.18 inHg (1022 hPa)
Humidité : 88%
Température : 52°F (11°C)
Vent de S at 10 mph (17 km/h)
Visibilité : greater than 7 miles (10 km)
Nantes
partiellement nuageux
Metar : 2018/12/17 13:00 LFRS 171300Z AUTO 20009KT 9999 FEW024 SCT230 13/10 Q1023 NOSIG
Couverture nuageuse : Few Clouds 2400 ft Partly Cloudy 23000 ft
Traduc : Partly cloudy 700 ft
Pression de 30.21 inHg (1023 hPa)
Humidité : 82%
Température : 55°F (13°C)
Point de rosée : 50°F (10°C)
Vent de SSW at 10 mph (17 km/h)
Visibilité : 6 miles (10 km)
Lannion
Ciel dégagé
Metar : 2018/12/17 13:00 LFRO 171300Z AUTO 18007KT 160V220 CAVOK 11/08 Q1020 NOSIG
Couverture nuageuse :
Traduc : Partly cloudy 700 ft
Pression de 30.12 inHg (1020 hPa)
Humidité : 82%
Température : 52°F (11°C)
Point de rosée : 46°F (8°C)
Vent de S at 8 mph (13 km/h)
Visibilité : greater than 7 miles (10 km)
Dinard
Ciel dégagé
Metar : 2018/12/17 13:00 LFRD 171300Z AUTO 20011KT CAVOK 11/08 Q1021 NOSIG
Couverture nuageuse :
Traduc : Partly cloudy 700 ft
Pression de 30.15 inHg (1021 hPa)
Humidité : 82%
Température : 52°F (11°C)
Point de rosée : 46°F (8°C)
Vent de SSW at 13 mph (20 km/h)
Visibilité : greater than 7 miles (10 km)
Brest
couvert
Metar : 2018/12/17 13:00 LFRB 171300Z AUTO 19014KT 9999 BKN022 BKN027 OVC034 12/09 Q1019 NOSIG
Couverture nuageuse : Mostly Cloudy 2200 ft Mostly Cloudy 2700 ft Overcast 3400 ft
Traduc : Partly cloudy 700 ft
Pression de 30.09 inHg (1019 hPa)
Humidité : 82%
Température : 54°F (12°C)
Point de rosée : 48°F (9°C)
Vent de S at 16 mph (26 km/h)
Visibilité : 6 miles (10 km)
Quimper
nuageux
Metar : 2018/12/17 13:00 LFRQ 171300Z AUTO 20010KT 180V240 9999 BKN017 BKN240 13/10 Q1020 NOSIG
Couverture nuageuse : Mostly Cloudy 1700 ft Mostly Cloudy 24000 ft
Traduc : Partly cloudy 700 ft
Pression de 30.12 inHg (1020 hPa)
Humidité : 82%
Température : 55°F (13°C)
Point de rosée : 50°F (10°C)
Vent de SSW at 12 mph (19 km/h)
Visibilité : 6 miles (10 km)
St Nazaire
Ciel dégagé
Metar : 2018/12/17 13:00 LFRZ 171300Z AUTO 21011KT CAVOK 11/09 Q1023 NOSIG
Couverture nuageuse :
Traduc : Partly cloudy 700 ft
Pression de 30.21 inHg (1023 hPa)
Humidité : 88%
Température : 52°F (11°C)
Point de rosée : 48°F (9°C)
Vent de SSW at 13 mph (20 km/h)
Visibilité : greater than 7 miles (10 km)
St Brieuc
Ciel dégagé
Metar : 2018/12/17 13:00 LFRT 171300Z AUTO 22010KT 180V250 CAVOK 11/08 Q1020
Couverture nuageuse :
Traduc : Partly cloudy 700 ft
Pression de 30.12 inHg (1020 hPa)
Humidité : 82%
Température : 52°F (11°C)
Point de rosée : 46°F (8°C)
Vent de SW at 12 mph (19 km/h)
Visibilité : greater than 7 miles (10 km)
Lorient
couvert
Metar : 2018/12/17 13:00 LFRH 171300Z AUTO 21009KT 9999 SCT028 OVC160 12/09 Q1022 TEMPO SCT015TCU
Couverture nuageuse : Partly Cloudy 2800 ft Overcast 16000 ft
Traduc : Partly cloudy 700 ft
Pression de 30.18 inHg (1022 hPa)
Humidité : 82%
Température : 54°F (12°C)
Point de rosée : 48°F (9°C)
Vent de SSW at 10 mph (17 km/h)
Visibilité : 6 miles (10 km)
Vannes-Meucon
Ciel dégagé
Metar : 2018/12/17 13:00 LFRV 171300Z AUTO 20006KT 170V230 CAVOK 11/09 Q1022
Couverture nuageuse :
Traduc : Partly cloudy 700 ft
Pression de 30.18 inHg (1022 hPa)
Humidité : 88%
Température : 52°F (11°C)
Point de rosée : 48°F (9°C)
Vent de SSW at 7 mph (11 km/h)
Visibilité : greater than 7 miles (10 km)

 


   Weather Underground PWS IBRETAGN39      Weather Underground PWS IBRETAGN39Retour Météo-Laillé adhérent de Météo-Bretagne et d'Infoclimat. Données mises à jour en temps réel via Météolink Climatologie réalisée sous Wswin et GraphWeather.

Affichage prévisions météo de WeatherUnderground via script PHP de Saratoga.

Copyright 2012-2018